createdAt,value
2023-05-01T00:01:24.143Z,2.4
2023-05-01T00:06:30.313Z,2.3
2023-05-01T00:11:36.419Z,2.1
2023-05-01T00:16:42.517Z,2.6
2023-05-01T00:21:47.618Z,2.7
2023-05-01T00:26:53.743Z,2.7
2023-05-01T00:31:59.847Z,3
2023-05-01T00:37:05.989Z,3.4
2023-05-01T00:42:12.133Z,3.3
2023-05-01T00:47:18.222Z,2.7
2023-05-01T00:52:24.322Z,3.3
2023-05-01T00:57:30.510Z,3.8
2023-05-01T01:02:36.552Z,4.6
2023-05-01T01:07:42.738Z,4.8
2023-05-01T01:12:48.787Z,4.7
2023-05-01T01:17:54.963Z,4.8
2023-05-01T01:23:01.102Z,4.9
2023-05-01T01:28:06.216Z,5
2023-05-01T01:33:12.284Z,4.8
2023-05-01T01:38:18.528Z,4.8
2023-05-01T01:43:24.497Z,4.7
2023-05-01T01:48:30.624Z,4.7
2023-05-01T01:53:36.745Z,4.6
2023-05-01T01:58:42.915Z,5
2023-05-01T02:03:48.992Z,4.9
2023-05-01T02:08:55.117Z,4.8
2023-05-01T02:14:01.264Z,4.7
2023-05-01T02:19:07.318Z,4.6
2023-05-01T02:24:13.437Z,4.7
2023-05-01T02:29:19.610Z,4.9
2023-05-01T02:34:24.687Z,4.6
2023-05-01T02:39:30.829Z,4.2
2023-05-01T02:44:36.929Z,4
2023-05-01T02:49:43.142Z,3.9
2023-05-01T02:54:49.150Z,4.2
2023-05-01T02:59:55.279Z,4.2
2023-05-01T03:05:01.441Z,4.3
2023-05-01T03:10:07.596Z,4.1
2023-05-01T03:15:13.653Z,4.4
2023-05-01T03:20:19.805Z,4.4
2023-05-01T03:25:25.932Z,4.4
2023-05-01T03:30:32.083Z,4.5
2023-05-01T03:35:38.130Z,4.2
2023-05-01T03:40:43.232Z,4
2023-05-01T03:45:49.345Z,3.8
2023-05-01T03:50:55.583Z,3.6
2023-05-01T03:56:01.588Z,3.7
2023-05-01T04:01:07.711Z,3.9
2023-05-01T04:06:13.834Z,3.9
2023-05-01T04:11:19.970Z,4.8
2023-05-01T04:16:26.073Z,5.9
2023-05-01T04:21:32.220Z,5.8
2023-05-01T04:26:38.338Z,6.1
2023-05-01T04:31:44.426Z,7.1
2023-05-01T04:36:50.553Z,8
2023-05-01T04:41:56.682Z,8.7
2023-05-01T04:47:01.811Z,9.2
2023-05-01T04:52:07.935Z,9
2023-05-01T04:57:14.038Z,9.3
2023-05-01T05:02:20.149Z,10.2
2023-05-01T05:07:26.288Z,10.6
2023-05-01T05:12:32.384Z,9.8
2023-05-01T05:17:38.513Z,9.9
2023-05-01T05:22:44.645Z,9.9
2023-05-01T05:27:50.725Z,10.3
2023-05-01T05:32:56.840Z,10.6
2023-05-01T05:38:02.968Z,12.3
2023-05-01T05:43:09.170Z,11.7
2023-05-01T05:48:15.230Z,11.1
2023-05-01T05:53:20.326Z,9.7
2023-05-01T05:58:26.497Z,10.7
2023-05-01T06:03:32.568Z,11.9
2023-05-01T06:08:38.666Z,13.3
2023-05-01T06:13:44.770Z,13.5
2023-05-01T06:18:50.899Z,12
2023-05-01T06:23:57.049Z,11.5
2023-05-01T06:29:03.107Z,11.4
2023-05-01T06:34:09.231Z,11.7
2023-05-01T06:39:15.343Z,12.4
2023-05-01T06:44:21.445Z,12.5
2023-05-01T06:49:27.551Z,13.6
2023-05-01T06:54:33.664Z,13.4
2023-05-01T06:59:38.772Z,14.4
2023-05-01T07:04:44.893Z,15.7
2023-05-01T07:09:51.040Z,16.8
2023-05-01T07:14:57.144Z,16.2
2023-05-01T07:20:03.251Z,15.7
2023-05-01T07:25:09.370Z,15
2023-05-01T07:30:15.451Z,14.2
2023-05-01T07:35:21.511Z,14.6
2023-05-01T07:40:27.635Z,14.2
2023-05-01T07:45:33.738Z,16.4
2023-05-01T07:50:40.047Z,17.4
2023-05-01T07:55:45.991Z,16
2023-05-01T08:00:52.077Z,17.4
2023-05-01T08:05:57.286Z,17.5
2023-05-01T08:11:03.336Z,16.6
2023-05-01T08:16:09.416Z,18.2
2023-05-01T08:21:15.535Z,17.4
2023-05-01T08:26:21.641Z,19.9
2023-05-01T08:31:27.764Z,18.5
2023-05-01T08:36:33.874Z,19.6
2023-05-01T08:41:40.021Z,19
2023-05-01T08:46:46.084Z,18.9
2023-05-01T08:51:52.300Z,18.9
2023-05-01T08:56:58.362Z,19.2
2023-05-01T09:02:04.486Z,20.6
2023-05-01T09:07:10.635Z,18.2
2023-05-01T09:12:15.697Z,19.7
2023-05-01T09:17:21.844Z,21
2023-05-01T09:22:28.032Z,19.8
2023-05-01T09:27:34.049Z,18.6
2023-05-01T09:32:40.223Z,19.2
2023-05-01T09:37:46.244Z,21.1
2023-05-01T09:42:52.366Z,18.7
2023-05-01T09:47:58.467Z,20.1
2023-05-01T09:53:04.615Z,16.9
2023-05-01T09:58:10.701Z,17.2
2023-05-01T10:03:16.970Z,17.4
2023-05-01T10:08:23.041Z,18.9
2023-05-01T10:13:29.192Z,18
2023-05-01T10:18:34.317Z,17.7
2023-05-01T10:23:40.454Z,18.1
2023-05-01T10:28:46.610Z,21
2023-05-01T10:33:52.609Z,21.9
2023-05-01T10:38:58.606Z,20.2
2023-05-01T10:44:04.881Z,18.7
2023-05-01T10:49:10.818Z,19.6
2023-05-01T10:54:17.075Z,21.1
2023-05-01T10:59:23.253Z,21
2023-05-01T11:04:29.224Z,21.2
2023-05-01T11:09:35.326Z,21.3
2023-05-01T11:14:41.414Z,21.7
2023-05-01T11:19:47.521Z,19.3
2023-05-01T11:24:52.625Z,19.8
2023-05-01T11:29:58.744Z,20.7
2023-05-01T11:35:04.874Z,19.4
2023-05-01T11:40:10.959Z,20.5
2023-05-01T11:45:17.174Z,19.6
2023-05-01T11:50:23.233Z,20.7
2023-05-01T11:55:29.309Z,20.4
2023-05-01T12:00:35.471Z,21.4
2023-05-01T12:05:41.513Z,19.5
2023-05-01T12:10:47.705Z,20.2
2023-05-01T12:15:53.800Z,20.4
2023-05-01T12:20:59.936Z,21.1
2023-05-01T12:26:06.067Z,21.7
2023-05-01T12:31:11.181Z,22.3
2023-05-01T12:36:17.206Z,21.8
2023-05-01T12:41:23.313Z,22.5
2023-05-01T12:46:29.444Z,22.5
2023-05-01T12:51:35.533Z,20.6
2023-05-01T12:56:41.657Z,21.1
2023-05-01T13:01:47.755Z,20.4
2023-05-01T13:06:53.861Z,20.4
2023-05-01T13:11:59.986Z,20.6
2023-05-01T13:17:06.167Z,19.8
2023-05-01T13:22:12.270Z,20.1
2023-05-01T13:27:18.408Z,20.8
2023-05-01T13:32:24.440Z,20.5
2023-05-01T13:37:29.546Z,20.2
2023-05-01T13:42:35.723Z,20.5
2023-05-01T13:47:41.767Z,20.6
2023-05-01T13:52:48.027Z,20.7
2023-05-01T13:57:54.151Z,20.2
2023-05-01T14:03:00.111Z,20.5
2023-05-01T14:08:06.216Z,19.6
2023-05-01T14:13:12.323Z,19.8
2023-05-01T14:18:18.511Z,20.8
2023-05-01T14:23:24.549Z,20.8
2023-05-01T14:28:30.664Z,20.9
2023-05-01T14:33:36.781Z,20.3
2023-05-01T14:38:42.932Z,20.3
2023-05-01T14:43:48.019Z,20.1
2023-05-01T14:48:54.160Z,20.2
2023-05-01T14:54:00.261Z,20
2023-05-01T14:59:06.372Z,20.1
2023-05-01T15:04:12.497Z,20.7
2023-05-01T15:09:18.597Z,20.6
2023-05-01T15:14:24.712Z,20
2023-05-01T15:19:30.964Z,20.5
2023-05-01T15:24:37.056Z,20.2
2023-05-01T15:29:43.036Z,20.3
2023-05-01T15:34:49.269Z,20.3
2023-05-01T15:39:55.280Z,20.2
2023-05-01T15:45:01.397Z,20
2023-05-01T15:50:06.554Z,19.5
2023-05-01T15:55:12.616Z,19
2023-05-01T16:00:18.756Z,19.1
2023-05-01T16:05:24.830Z,19
2023-05-01T16:10:30.954Z,18.8
2023-05-01T16:15:37.056Z,18.5
2023-05-01T16:20:42.277Z,18.1
2023-05-01T16:25:48.335Z,18
2023-05-01T16:30:54.411Z,17.9
2023-05-01T16:36:00.504Z,17.8
2023-05-01T16:41:06.632Z,17.7
2023-05-01T16:46:12.736Z,17.7
2023-05-01T16:51:18.920Z,17.6
2023-05-01T16:56:25.045Z,17.6
2023-05-01T17:01:31.136Z,17.3
2023-05-01T17:06:37.201Z,16.9
2023-05-01T17:11:43.383Z,16.7
2023-05-01T17:16:49.397Z,16.6
2023-05-01T17:21:55.507Z,16.2
2023-05-01T17:27:00.652Z,16
2023-05-01T17:32:06.787Z,15.7
2023-05-01T17:37:12.888Z,15.2
2023-05-01T17:42:18.999Z,14.8
2023-05-01T17:47:25.108Z,14.3
2023-05-01T17:52:31.187Z,14
2023-05-01T17:57:37.346Z,13.9
2023-05-01T18:02:43.405Z,13.6
2023-05-01T18:07:49.602Z,13.4
2023-05-01T18:12:55.625Z,13.2
2023-05-01T18:18:01.832Z,13.1
2023-05-01T18:23:07.978Z,12.9
2023-05-01T18:28:13.968Z,12.8
2023-05-01T18:33:19.165Z,12.8
2023-05-01T18:38:25.228Z,12.6
2023-05-01T18:43:31.360Z,12.6
2023-05-01T18:48:37.414Z,12.7
2023-05-01T18:53:43.566Z,12.6
2023-05-01T18:58:49.763Z,12.5
2023-05-01T19:03:55.904Z,12.4
2023-05-01T19:09:01.945Z,12.2
2023-05-01T19:14:07.967Z,12
2023-05-01T19:19:14.064Z,11.8
2023-05-01T19:24:20.184Z,11.8
2023-05-01T19:34:32.389Z,12
2023-05-01T19:39:37.565Z,12.1
2023-05-01T19:44:43.660Z,11.8
2023-05-01T19:49:49.895Z,11.9
2023-05-01T19:54:55.836Z,12.1
2023-05-01T20:00:01.931Z,12
2023-05-01T20:05:08.189Z,12.1
2023-05-01T20:10:14.165Z,12
2023-05-01T20:15:20.273Z,12
2023-05-01T20:20:26.469Z,11.9
2023-05-01T20:25:32.506Z,11.8
2023-05-01T20:30:38.720Z,11.8
2023-05-01T20:35:44.704Z,11.6
2023-05-01T20:40:50.886Z,11.5
2023-05-01T20:45:55.920Z,11.6
2023-05-01T20:51:02.101Z,11.5
2023-05-01T20:56:08.163Z,11.8
2023-05-01T21:01:14.284Z,12
2023-05-01T21:06:20.445Z,12.2
2023-05-01T21:11:26.465Z,12.2
2023-05-01T21:16:32.569Z,12.1
2023-05-01T21:21:38.683Z,12.4
2023-05-01T21:26:44.803Z,12.3
2023-05-01T21:31:50.882Z,12.2
2023-05-01T21:36:57.061Z,12.4
2023-05-01T21:42:03.093Z,12.5
2023-05-01T21:47:09.218Z,12.3
2023-05-01T21:52:14.441Z,12.5
2023-05-01T21:57:20.496Z,12.2
2023-05-01T22:02:26.594Z,12
2023-05-01T22:07:32.654Z,11.8
2023-05-01T22:12:38.801Z,11.5
2023-05-01T22:17:44.928Z,11.3
2023-05-01T22:22:50.966Z,11
2023-05-01T22:27:57.065Z,10.9
2023-05-01T22:33:03.210Z,10.6
2023-05-01T22:38:09.281Z,10.4
2023-05-01T22:43:15.417Z,10.2
2023-05-01T22:48:21.527Z,10
2023-05-01T22:53:27.758Z,9.9
2023-05-01T22:58:32.742Z,9.8
2023-05-01T23:03:38.879Z,9.9
2023-05-01T23:08:45.008Z,9.7
2023-05-01T23:13:51.124Z,10
2023-05-01T23:18:57.208Z,10
2023-05-01T23:24:03.458Z,10
2023-05-01T23:29:09.454Z,9.9
2023-05-01T23:34:15.698Z,9.9
2023-05-01T23:39:21.668Z,9.7
2023-05-01T23:44:27.792Z,9.5
2023-05-01T23:49:33.895Z,9.2
2023-05-01T23:54:40.018Z,9.1
2023-05-01T23:59:46.218Z,8.9
